Latest Weather Observations for Temora

IDN60801

Issued at 11:34 am EST Wednesday 1 June 2016 (issued every 30 minutes, with the page automatically refreshed every 10 minutes)

About weather observations | Map of weather stations | Latest weather observations for NSW | Other Formats
Station Details ID: 073151 Name: TEMORA AIRPORT Lat: -34.43 Lon: 147.51 Height: 280.5 m
Data from the previous 72 hours. | See also: Recent months at Temora
Date/Time
EST
Temp
°C
App
Temp
°C
Dew
Point
Rel
Hum
%
Delta-T
°C
Wind Press
QNH
hPa
Press
MSL
hPa
Rain
since 9 am
mm
Dir
 
Spd
km/h
Gust
km/h
Spd
kts
Gust
kts
01/11:30am 14.2 9.7 8.6 69 2.8 E 22 30 12 16 1027.4 1027.8 0.0
01/11:00am 14.1 9.6 8.5 69 2.8 E 22 28 12 15 1027.8 1028.2 0.0
01/10:30am 13.8 9.7 8.6 71 2.7 E 20 30 11 16 1028.0 1028.4 0.0
01/10:00am 12.9 9.4 8.6 75 2.2 E 17 26 9 14 1028.1 1028.5 0.0
01/09:30am 11.7 9.2 8.4 80 1.7 E 11 17 6 9 1028.2 1028.4 0.0
01/09:00am 10.6 7.7 8.0 84 1.3 ESE 13 20 7 11 1027.9 1028.0 0.0
01/08:30am 9.7 7.4 7.6 87 1.0 ESE 9 15 5 8 1027.8 1027.9 0.0
01/08:00am 9.0 7.1 7.5 90 0.7 ESE 7 11 4 6 1027.8 1027.9 0.0
01/07:30am 8.4 6.1 7.3 93 0.5 ESE 9 11 5 6 1027.5 1027.6 0.0
01/07:00am 7.7 5.7 7.3 97 0.2 ESE 7 11 4 6 1027.4 1027.5 0.0
01/06:30am 5.7 3.5 5.1 96 0.3 SSE 6 7 3 4 1027.1 1027.2 0.0
01/06:00am 5.7 3.3 4.3 91 0.6 S 6 7 3 4 1027.0 1027.1 0.0
01/05:30am 8.5 6.1 7.0 90 0.7 ESE 9 11 5 6 1026.8 1026.9 0.0
01/05:00am 8.6 5.8 7.1 90 0.7 ESE 11 17 6 9 1026.4 1026.5 0.0
01/04:30am 8.6 5.9 7.2 91 0.7 ESE 11 15 6 8 1026.4 1026.5 0.0
01/04:00am 8.7 6.0 7.2 90 0.7 ESE 11 13 6 7 1026.5 1026.6 0.0
01/03:30am 8.9 5.8 7.2 89 0.8 ESE 13 17 7 9 1026.6 1026.7 0.0
01/03:00am 9.5 6.4 7.4 87 1.0 E 13 17 7 9 1026.8 1026.9 0.0
01/02:30am 9.7 6.3 7.6 87 1.0 E 15 20 8 11 1026.9 1027.0 0.0
01/02:00am 9.8 6.4 7.6 86 1.1 E 15 20 8 11 1027.0 1027.1 0.0
01/01:30am 9.5 5.7 7.4 87 1.0 ESE 17 20 9 11 1027.0 1027.1 0.0
01/01:00am 9.4 6.4 7.5 88 0.9 E 13 17 7 9 1027.4 1027.5 0.0
01/12:30am 9.8 6.4 7.7 87 1.0 E 15 20 8 11 1027.3 1027.4 0.0
01/12:00am 10.0 6.7 7.9 87 1.0 E 15 20 8 11 1027.5 1027.6 0.0
 
Date/Time
EST
Temp
°C
App
Temp
°C
Dew
Point
Rel
Hum
%
Delta-T
°C
Wind Press
QNH
hPa
Press
MSL
hPa
Rain
since 9 am
mm
Dir
 
Spd
km/h
Gust
km/h
Spd
kts
Gust
kts
31/11:30pm 10.2 6.5 8.1 87 1.0 E 17 24 9 13 1027.7 1027.8 0.0
31/11:00pm 10.4 7.1 8.2 86 1.1 E 15 19 8 10 1027.7 1027.8 0.0
31/10:30pm 10.5 7.3 8.3 86 1.1 E 15 20 8 11 1027.6 1027.7 0.0
31/10:00pm 10.6 7.3 8.2 85 1.2 E 15 24 8 13 1027.7 1027.8 0.0
31/09:30pm 10.7 8.2 8.3 85 1.2 E 11 15 6 8 1027.7 1027.8 0.0
31/09:00pm 11.0 8.5 8.4 84 1.3 E 11 17 6 9 1027.8 1027.9 0.0
31/08:30pm 11.3 8.1 8.3 82 1.5 E 15 22 8 12 1027.6 1027.7 0.0
31/08:00pm 11.6 7.6 8.1 79 1.7 ESE 19 24 10 13 1027.4 1027.5 0.0
31/07:30pm 11.6 8.6 7.5 76 2.0 SE 13 17 7 9 1027.3 1027.4 0.0
31/07:00pm 11.1 8.6 6.6 74 2.1 SE 9 11 5 6 1027.2 1027.3 0.0
31/06:30pm 11.8 9.4 6.9 72 2.4 SE 9 13 5 7 1027.0 1027.1 0.0
31/06:00pm 12.2 9.4 6.9 70 2.6 ESE 11 13 6 7 1026.9 1027.0 0.0
31/05:30pm 12.9 10.5 6.9 67 2.9 ESE 9 13 5 7 1026.7 1026.8 0.0
31/05:00pm 13.9 10.8 7.4 65 3.2 ESE 13 15 7 8 1026.5 1026.6 0.0
31/04:30pm 15.2 12.1 7.3 59 4.0 E 13 20 7 11 1026.3 1026.4 0.0
31/04:00pm 16.0 12.1 7.0 55 4.5 E 17 20 9 11 1026.3 1026.4 0.0
31/03:30pm 16.3 12.0 7.0 54 4.7 ESE 19 28 10 15 1026.3 1026.4 0.0
31/03:00pm 16.6 12.5 6.1 50 5.2 ENE 17 22 9 12 1026.3 1026.4 0.0
31/02:30pm 16.2 12.6 6.9 54 4.7 E 15 20 8 11 1026.4 1026.5 0.0
31/02:00pm 16.2 12.3 7.2 55 4.5 ENE 17 24 9 13 1026.5 1026.6 0.0
31/01:30pm 15.8 11.4 7.3 57 4.3 ENE 20 28 11 15 1026.9 1027.0 0.0
31/01:00pm 15.5 11.8 8.0 61 3.8 ENE 17 24 9 13 1027.4 1027.5 0.0
31/12:30pm 14.8 11.1 8.1 64 3.4 ENE 17 26 9 14 1027.8 1027.9 0.0
31/12:00pm 14.5 10.6 8.5 67 3.0 ENE 19 24 10 13 1028.1 1028.2 0.0
31/11:30am 14.3 10.3 9.1 71 2.7 ENE 20 30 11 16 1028.6 1028.8 0.0
31/11:00am 13.4 9.3 8.5 72 2.5 ENE 20 26 11 14 1028.9 1029.1 0.0
31/10:30am 12.5 8.3 8.2 75 2.2 ENE 20 28 11 15 1029.3 1029.5 0.0
31/10:00am 11.6 8.7 8.1 79 1.7 E 13 19 7 10 1029.5 1029.7 0.0
31/09:30am 9.9 7.1 6.8 81 1.5 E 11 15 6 8 1029.6 1029.8 0.0
31/09:00am 9.4 8.6 6.7 83 1.3 CALM 0 0 0 0 1029.6 1029.8 0.0
31/08:30am 6.9 4.8 5.8 93 0.5 NW 6 7 3 4 1029.4 1029.6 0.0
31/08:00am 5.4 4.2 4.5 94 0.4 CALM 0 0 0 0 1029.1 1029.3 0.0
31/07:30am 5.8 3.3 4.6 92 0.5 E 7 9 4 5 1028.7 1028.9 0.0
31/07:00am 6.3 3.1 4.9 91 0.6 E 11 13 6 7 1028.5 1028.7 0.0
31/06:30am 6.6 3.0 5.1 90 0.7 E 13 17 7 9 1028.3 1028.5 0.0
31/06:00am 6.6 3.4 5.1 90 0.7 ENE 11 17 6 9 1028.2 1028.4 0.0
31/05:30am 6.3 3.1 5.3 93 0.4 ENE 11 13 6 7 1028.0 1028.1 0.0
31/05:00am 4.5 2.2 2.8 89 0.7 ENE 4 6 2 3 1027.7 1027.8 0.0
31/04:30am 5.5 2.9 3.3 86 0.9 E 6 9 3 5 1027.5 1027.6 0.0
31/04:00am 6.8 3.8 4.3 84 1.1 E 9 13 5 7 1027.4 1027.5 0.0
31/03:30am 6.6 3.3 4.8 88 0.8 E 11 15 6 8 1027.5 1027.6 0.0
31/03:00am 4.9 2.4 4.8 99 0.0 E 7 11 4 6 1027.4 1027.5 0.0
31/02:30am 1.3 -1.9 1.0 98 0.1 ESE 7 7 4 4 1027.3 1027.4 0.0
31/02:00am 1.6 -0.6 1.3 98 0.1 SE 2 6 1 3 1027.3 1027.4 0.0
31/01:30am 2.0 -0.5 1.7 98 0.1 SE 4 7 2 4 1027.5 1027.6 0.0
31/01:00am 2.2 -0.6 1.9 98 0.1 SSE 6 7 3 4 1027.6 1027.7 0.0
31/12:30am 2.9 0.6 2.6 98 0.1 SSE 4 7 2 4 1027.6 1027.7 0.0
31/12:00am 2.6 1.0 2.2 97 0.2 CALM 0 0 0 0 1027.7 1027.8 0.0
 
Date/Time
EST
Temp
°C
App
Temp
°C
Dew
Point
Rel
Hum
%
Delta-T
°C
Wind Press
QNH
hPa
Press
MSL
hPa
Rain
since 9 am
mm
Dir
 
Spd
km/h
Gust
km/h
Spd
kts
Gust
kts
30/11:30pm 2.3 0.2 1.9 97 0.2 SSW 2 6 1 3 1027.7 1027.8 0.0
30/11:00pm 3.4 1.5 3.0 97 0.2 S 2 6 1 3 1027.5 1027.6 0.0
30/10:30pm 2.9 0.9 2.2 95 0.3 S 2 7 1 4 1027.4 1027.5 0.0
30/10:00pm 3.7 2.2 3.1 96 0.2 CALM 0 6 0 3 1027.6 1027.7 0.0
30/09:30pm 3.6 0.9 2.6 93 0.4 WNW 6 7 3 4 1027.4 1027.5 0.0
30/09:00pm 4.9 2.3 3.2 89 0.7 S 6 11 3 6 1027.2 1027.3 0.0
30/08:30pm 5.3 2.6 3.8 90 0.6 S 7 11 4 6 1027.1 1027.2 0.0
30/08:00pm 5.2 2.2 4.0 92 0.5 SSE 9 11 5 6 1026.9 1027.0 0.0
30/07:30pm 5.2 2.5 3.7 90 0.6 S 7 9 4 5 1026.7 1026.8 0.0
30/07:00pm 6.4 3.9 4.6 88 0.8 SSE 7 9 4 5 1026.6 1026.7 0.0
30/06:30pm 7.0 4.4 4.1 82 1.3 SSE 7 9 4 5 1026.3 1026.4 0.0
30/06:00pm 9.1 6.5 4.1 71 2.2 SE 7 9 4 5 1026.1 1026.2 0.0
30/05:30pm 9.9 6.5 4.1 67 2.6 ESE 11 15 6 8 1025.8 1026.0 0.0
30/05:00pm 11.0 7.6 4.0 62 3.1 SE 11 15 6 8 1025.6 1025.8 0.0
30/04:30pm 11.9 7.6 3.2 55 3.9 ESE 15 20 8 11 1025.4 1025.6 0.0
30/04:00pm 12.5 8.1 2.9 52 4.3 ESE 15 19 8 10 1025.1 1025.2 0.0
30/03:30pm 12.8 8.1 2.9 51 4.4 E 17 20 9 11 1025.0 1025.1 0.0
30/03:00pm 12.8 9.8 4.3 56 3.9 ESE 9 15 5 8 1025.0 1025.1 0.0
30/02:30pm 12.7 10.0 3.6 54 4.1 SSE 7 13 4 7 1025.0 1025.1 0.0
30/02:00pm 12.5 9.6 4.7 59 3.6 SE 9 17 5 9 1025.2 1025.4 0.0
30/01:30pm 12.2 9.7 3.7 56 3.9 E 6 17 3 9 1025.4 1025.6 0.0
30/01:00pm 12.1 9.2 4.8 61 3.4 SE 9 17 5 9 1025.7 1025.9 0.0
30/12:30pm 11.6 8.8 2.9 55 3.9 ESE 7 13 4 7 1026.2 1026.3 0.0
30/12:00pm 11.3 8.2 3.6 59 3.4 SE 9 17 5 9 1026.4 1026.5 0.0
30/11:30am 11.0 7.3 2.3 55 3.8 SE 11 20 6 11 1026.8 1026.9 0.0
30/11:00am 10.5 6.8 2.4 57 3.5 ESE 11 15 6 8 1027.0 1027.1 0.0
30/10:30am 10.2 6.5 2.6 59 3.3 SSE 11 13 6 7 1027.2 1027.3 0.0
30/10:00am 9.9 7.2 3.6 65 2.8 S 7 11 4 6 1027.3 1027.4 0.0
30/09:30am 8.9 6.4 3.7 70 2.3 SSW 6 9 3 5 1027.2 1027.3 0.0
30/09:00am 6.2 5.1 5.3 94 0.4 CALM 0 0 0 0 1027.1 1027.2 0.2
30/08:30am 4.4 2.3 4.1 98 0.1 SSE 4 7 2 4 1026.9 1027.0 0.2
30/08:00am 3.1 0.8 2.7 97 0.2 SSE 4 7 2 4 1026.7 1026.8 0.2
30/07:30am 2.5 0.8 2.1 97 0.2 CALM 0 6 0 3 1026.4 1026.5 0.2
30/07:00am 2.9 1.3 2.3 96 0.2 CALM 0 6 0 3 1025.8 1026.0 0.2
30/06:30am 3.0 1.3 2.1 94 0.4 CALM 0 0 0 0 1025.5 1025.7 0.2
30/06:00am 3.4 1.8 2.2 92 0.5 CALM 0 0 0 0 1025.2 1025.4 0.2
30/05:30am 4.1 1.3 2.1 87 0.8 SSE 6 6 3 3 1024.8 1024.9 0.2
30/05:00am 5.3 2.7 3.3 87 0.8 S 6 9 3 5 1024.7 1024.8 0.2
30/04:30am 6.3 3.6 3.5 82 1.2 SSW 7 7 4 4 1024.5 1024.6 0.2
30/04:00am 5.8 3.1 3.6 86 0.9 SW 7 9 4 5 1024.3 1024.4 0.2
30/03:30am 6.2 3.7 3.9 85 1.0 SW 6 9 3 5 1024.3 1024.4 0.2
30/03:00am 6.1 3.6 3.9 86 0.9 SW 6 7 3 4 1024.3 1024.4 0.2
30/02:30am 6.3 3.7 4.0 85 1.0 SSW 7 11 4 6 1024.4 1024.5 0.2
30/02:00am 5.7 4.0 4.0 89 0.7 SW 2 7 1 4 1024.4 1024.5 0.2
30/01:30am 5.4 3.6 3.6 88 0.8 SSW 2 6 1 3 1024.1 1024.2 0.2
30/01:00am 5.4 3.2 3.3 86 0.9 SSW 4 7 2 4 1023.9 1024.0 0.2
30/12:30am 5.9 4.5 3.6 85 1.0 CALM 0 2 0 1 1023.9 1024.0 0.2
30/12:00am 6.3 4.1 3.5 82 1.2 S 4 9 2 5 1023.9 1024.0 0.2
 
Date/Time
EST
Temp
°C
App
Temp
°C
Dew
Point
Rel
Hum
%
Delta-T
°C
Wind Press
QNH
hPa
Press
MSL
hPa
Rain
since 9 am
mm
Dir
 
Spd
km/h
Gust
km/h
Spd
kts
Gust
kts
29/11:30pm 6.3 3.6 2.9 79 1.4 WSW 6 7 3 4 1023.9 1024.0 0.2
29/11:00pm 6.8 4.0 3.2 78 1.5 SSW 7 11 4 6 1023.7 1023.8 0.2
29/10:30pm 8.0 5.3 2.7 69 2.3 WSW 6 9 3 5 1023.9 1024.0 0.2
29/10:00pm 7.9 5.3 3.2 72 2.0 WSW 6 9 3 5 1023.9 1024.0 0.2
29/09:30pm 8.3 5.5 3.4 71 2.1 WSW 7 11 4 6 1023.7 1023.8 0.2
29/09:00pm 8.6 5.7 2.8 67 2.5 WSW 7 11 4 6 1023.8 1023.9 0.2
29/08:30pm 8.8 6.0 3.0 67 2.5 SW 7 9 4 5 1023.6 1023.7 0.2
29/08:00pm 8.9 5.7 3.3 68 2.4 WSW 9 11 5 6 1023.4 1023.5 0.2
29/07:30pm 9.3 6.8 3.5 67 2.6 SW 6 11 3 6 1023.2 1023.3 0.2
29/07:00pm 9.2 6.1 3.8 69 2.4 WSW 9 13 5 7 1022.8 1022.9 0.2
29/06:30pm 9.2 6.1 3.6 68 2.5 SW 9 13 5 7 1022.4 1022.5 0.2
29/06:00pm 9.5 6.4 3.7 67 2.6 SW 9 13 5 7 1022.0 1022.1 0.2
29/05:30pm 9.0 6.0 4.2 72 2.1 WSW 9 11 5 6 1021.8 1021.9 0.2
29/05:00pm 9.2 5.7 3.6 68 2.5 SW 11 15 6 8 1021.6 1021.7 0.2
29/04:30pm 9.9 6.0 3.6 65 2.8 SW 13 17 7 9 1021.4 1021.5 0.2
29/04:00pm 10.6 6.4 3.6 62 3.1 WSW 15 17 8 9 1021.1 1021.2 0.2
29/03:30pm 10.4 6.1 3.4 62 3.1 WSW 15 19 8 10 1020.9 1021.0 0.0
29/03:00pm 11.4 6.4 3.7 59 3.5 WSW 19 28 10 15 1020.8 1020.9 0.0
29/02:30pm 11.7 7.1 3.7 58 3.6 SSW 17 22 9 12 1020.7 1020.8 0.0
29/02:00pm 12.0 7.5 4.0 58 3.6 WSW 17 32 9 17 1020.5 1020.6 0.0
29/01:30pm 10.6 5.7 3.9 63 3.0 SW 19 24 10 13 1020.6 1020.7 0.0
29/01:00pm 10.4 5.3 4.1 65 2.8 SW 20 30 11 16 1020.7 1020.8 0.0
29/12:30pm 11.9 6.9 4.4 60 3.4 WSW 20 30 11 16 1020.7 1020.8 0.0
29/12:00pm 11.3 6.2 4.1 61 3.3 WSW 20 30 11 16 1020.8 1020.9 0.0

Other Formats:

Comma delimited format used in spreadsheet applications
http://www.bom.gov.au/fwo/IDN60801/IDN60801.95722.axf

JavaScript Object Notation format (JSON) in row-major order
http://www.bom.gov.au/fwo/IDN60801/IDN60801.95722.json